createdAt,value
2018-12-09T00:01:11.645Z,41.30
2018-12-09T00:03:41.902Z,41.10
2018-12-09T00:06:12.266Z,40.70
2018-12-09T00:08:42.650Z,40.30
2018-12-09T00:11:13.016Z,40.00
2018-12-09T00:13:43.181Z,40.00
2018-12-09T00:16:13.693Z,40.30
2018-12-09T00:18:43.854Z,40.00
2018-12-09T00:21:14.626Z,39.40
2018-12-09T00:23:45.008Z,39.10
2018-12-09T00:26:15.536Z,39.10
2018-12-09T00:28:46.134Z,39.70
2018-12-09T00:31:16.342Z,40.00
2018-12-09T00:33:46.741Z,40.50
2018-12-09T00:36:17.024Z,40.50
2018-12-09T00:38:48.099Z,40.80
2018-12-09T00:41:18.299Z,41.00
2018-12-09T00:43:49.117Z,41.30
2018-12-09T00:46:18.804Z,41.40
2018-12-09T00:48:48.330Z,42.00
2018-12-09T00:51:17.902Z,43.30
2018-12-09T00:53:46.697Z,44.30
2018-12-09T00:56:15.529Z,44.90
2018-12-09T00:58:45.746Z,45.00
2018-12-09T01:01:15.982Z,45.70
2018-12-09T01:03:46.406Z,45.20
2018-12-09T01:06:19.530Z,45.50
2018-12-09T01:08:49.704Z,45.70
2018-12-09T01:11:20.252Z,45.50
2018-12-09T01:13:50.572Z,44.90
2018-12-09T01:16:20.890Z,44.00
2018-12-09T01:18:51.214Z,43.10
2018-12-09T01:21:21.408Z,42.40
2018-12-09T01:23:52.729Z,42.30
2018-12-09T01:26:22.970Z,42.20
2018-12-09T01:28:53.222Z,42.20
2018-12-09T01:31:23.692Z,43.00
2018-12-09T01:33:53.980Z,42.50
2018-12-09T01:36:24.459Z,42.50
2018-12-09T01:38:56.250Z,41.90
2018-12-09T01:41:26.629Z,41.40
2018-12-09T01:43:57.560Z,41.10
2018-12-09T01:46:27.964Z,41.10
2018-12-09T01:48:57.564Z,41.00
2018-12-09T01:51:27.171Z,40.80
2018-12-09T01:54:12.319Z,40.60
2018-12-09T01:56:42.761Z,40.80
2018-12-09T01:59:13.062Z,40.20
2018-12-09T02:01:43.462Z,39.80
2018-12-09T02:04:13.885Z,39.10
2018-12-09T02:06:44.089Z,38.50
2018-12-09T02:09:15.680Z,37.60
2018-12-09T02:11:45.912Z,36.10
2018-12-09T02:14:16.302Z,35.70
2018-12-09T02:16:46.538Z,35.80
2018-12-09T02:19:20.615Z,35.90
2018-12-09T02:21:53.075Z,35.80
2018-12-09T02:24:37.025Z,35.70
2018-12-09T02:27:07.451Z,35.40
2018-12-09T02:29:37.707Z,35.30
2018-12-09T02:32:08.559Z,34.70
2018-12-09T02:34:38.876Z,34.90
2018-12-09T02:37:09.328Z,35.60
2018-12-09T02:39:38.890Z,35.50
2018-12-09T02:42:10.122Z,35.70
2018-12-09T02:44:40.212Z,35.50
2018-12-09T02:47:10.430Z,35.20
2018-12-09T02:49:40.529Z,35.10
2018-12-09T02:52:11.756Z,34.70
2018-12-09T02:54:41.263Z,35.20
2018-12-09T02:57:10.994Z,35.60
2018-12-09T02:59:40.603Z,36.00
2018-12-09T03:02:10.599Z,36.90
2018-12-09T03:04:39.410Z,36.30
2018-12-09T03:07:09.691Z,36.60
2018-12-09T03:09:40.641Z,36.40
2018-12-09T03:12:11.303Z,36.30
2018-12-09T03:14:41.984Z,36.90
2018-12-09T03:17:12.352Z,37.10
2018-12-09T03:19:42.536Z,38.40
2018-12-09T03:22:13.904Z,39.30
2018-12-09T03:24:44.006Z,39.90
2018-12-09T03:27:14.326Z,40.10
2018-12-09T03:29:48.660Z,40.30
2018-12-09T03:32:19.571Z,40.50
2018-12-09T03:34:49.944Z,40.70
2018-12-09T03:37:19.928Z,41.10
2018-12-09T03:39:51.047Z,40.90
2018-12-09T03:42:21.742Z,40.70
2018-12-09T03:44:52.111Z,40.70
2018-12-09T03:47:22.516Z,41.00
2018-12-09T03:49:52.678Z,41.50
2018-12-09T03:52:23.285Z,41.80
2018-12-09T03:54:54.214Z,42.00
2018-12-09T03:57:24.845Z,42.30
2018-12-09T03:59:54.735Z,42.20
2018-12-09T04:02:26.042Z,41.80
2018-12-09T04:04:55.617Z,41.50
2018-12-09T04:07:25.350Z,41.30
2018-12-09T04:09:55.028Z,41.40
2018-12-09T04:12:25.700Z,42.00
2018-12-09T04:14:54.586Z,42.90
2018-12-09T04:17:25.232Z,42.70
2018-12-09T04:19:55.596Z,42.60
2018-12-09T04:22:41.055Z,42.40
2018-12-09T04:25:11.601Z,42.20
2018-12-09T04:27:42.916Z,41.40
2018-12-09T04:30:13.162Z,41.20
2018-12-09T04:32:43.874Z,40.60
2018-12-09T04:35:15.068Z,40.20
2018-12-09T04:37:45.299Z,40.10
2018-12-09T04:40:15.597Z,40.00
2018-12-09T04:42:46.890Z,40.10
2018-12-09T04:45:17.286Z,40.50
2018-12-09T04:47:47.662Z,40.70
2018-12-09T04:50:17.918Z,41.00
2018-12-09T04:52:48.769Z,40.50
2018-12-09T04:55:18.994Z,40.20
2018-12-09T04:57:49.518Z,40.10
2018-12-09T05:00:24.590Z,40.00
2018-12-09T05:02:55.287Z,40.10
2018-12-09T05:05:25.512Z,40.60
2018-12-09T05:07:56.771Z,41.00
2018-12-09T05:10:26.401Z,41.10
2018-12-09T05:12:57.363Z,41.10
2018-12-09T05:15:42.974Z,40.70
2018-12-09T05:18:12.872Z,41.20
2018-12-09T05:20:42.389Z,41.80
2018-12-09T05:23:11.861Z,41.60
2018-12-09T05:25:41.313Z,41.50
2018-12-09T05:28:10.426Z,41.20
2018-12-09T05:30:39.484Z,40.60
2018-12-09T05:33:10.358Z,40.10
2018-12-09T05:35:40.573Z,39.60
2018-12-09T05:38:10.834Z,39.00
2018-12-09T05:40:41.325Z,38.70
2018-12-09T05:43:12.006Z,38.30
2018-12-09T05:45:43.753Z,38.00
2018-12-09T05:48:15.889Z,37.40
2018-12-09T05:50:46.043Z,36.70
2018-12-09T05:53:20.775Z,36.10
2018-12-09T05:55:55.678Z,35.60
2018-12-09T05:58:28.028Z,35.70
2018-12-09T06:00:58.202Z,35.70
2018-12-09T06:03:27.297Z,36.30
2018-12-09T06:06:00.663Z,36.50
2018-12-09T06:08:31.137Z,36.20
2018-12-09T06:11:01.394Z,35.90
2018-12-09T06:13:31.818Z,35.40
2018-12-09T06:16:02.721Z,35.00
2018-12-09T06:18:33.005Z,34.60
2018-12-09T06:21:03.464Z,34.60
2018-12-09T06:23:35.097Z,34.30
2018-12-09T06:26:05.334Z,34.50
2018-12-09T06:28:37.902Z,34.90
2018-12-09T06:31:08.611Z,35.00
2018-12-09T06:33:38.437Z,35.30
2018-12-09T06:38:52.090Z,36.00
2018-12-09T06:41:21.465Z,36.60
2018-12-09T06:43:51.251Z,37.40
2018-12-09T06:46:20.886Z,37.70
2018-12-09T06:48:51.207Z,38.00
2018-12-09T06:51:21.531Z,38.20
2018-12-09T06:53:50.845Z,38.50
2018-12-09T06:56:19.761Z,39.20
2018-12-09T06:58:50.331Z,40.20
2018-12-09T07:01:20.569Z,40.70
2018-12-09T07:03:50.821Z,40.60
2018-12-09T07:06:20.917Z,40.30
2018-12-09T07:09:04.551Z,40.50
2018-12-09T07:11:34.695Z,40.10
2018-12-09T07:14:05.323Z,40.40
2018-12-09T07:16:36.223Z,40.80
2018-12-09T07:19:06.509Z,41.00
2018-12-09T07:21:36.793Z,40.20
2018-12-09T07:24:07.039Z,40.10
2018-12-09T07:26:37.299Z,40.20
2018-12-09T07:29:07.637Z,40.50
2018-12-09T07:31:37.884Z,40.70
2018-12-09T07:34:08.231Z,40.70
2018-12-09T07:36:39.407Z,40.90
2018-12-09T07:39:10.116Z,41.30
2018-12-09T07:41:40.680Z,41.80
2018-12-09T07:44:11.177Z,41.30
2018-12-09T07:46:44.082Z,41.20
2018-12-09T07:49:13.917Z,41.10
2018-12-09T07:51:43.558Z,41.10
2018-12-09T07:54:13.347Z,41.10
2018-12-09T07:56:58.567Z,41.40
2018-12-09T07:59:29.314Z,41.60
2018-12-09T08:01:58.820Z,41.50
2018-12-09T08:04:28.458Z,41.60
2018-12-09T08:06:58.958Z,41.80
2018-12-09T08:09:27.742Z,41.50
2018-12-09T08:11:58.200Z,41.50
2018-12-09T08:14:28.498Z,41.60
2018-12-09T08:16:58.975Z,41.60
2018-12-09T08:19:29.857Z,41.10
2018-12-09T08:22:00.531Z,41.30
2018-12-09T08:24:31.027Z,41.20
2018-12-09T08:27:02.435Z,41.20
2018-12-09T08:29:33.531Z,40.60
2018-12-09T08:32:03.961Z,40.30
2018-12-09T08:34:34.839Z,40.10
2018-12-09T08:37:05.669Z,40.00
2018-12-09T08:39:36.044Z,40.10
2018-12-09T08:42:06.341Z,40.10
2018-12-09T08:44:36.940Z,40.40
2018-12-09T08:47:07.262Z,41.20
2018-12-09T08:49:38.081Z,40.40
2018-12-09T08:52:08.268Z,39.80
2018-12-09T08:54:38.809Z,39.50
2018-12-09T08:57:09.132Z,39.50
2018-12-09T08:59:40.174Z,39.30
2018-12-09T09:02:09.723Z,39.40
2018-12-09T09:04:39.469Z,39.10
2018-12-09T09:07:08.333Z,38.80
2018-12-09T09:09:37.353Z,38.60
2018-12-09T09:12:08.969Z,38.40
2018-12-09T09:14:39.951Z,38.90
2018-12-09T09:17:10.411Z,39.30
2018-12-09T09:19:40.841Z,39.60
2018-12-09T09:22:11.021Z,39.00
2018-12-09T09:24:41.273Z,38.10
2018-12-09T09:27:10.107Z,37.60
2018-12-09T09:29:40.345Z,37.20
2018-12-09T09:32:11.003Z,37.00
2018-12-09T09:34:41.273Z,36.70
2018-12-09T09:37:11.656Z,36.70
2018-12-09T09:39:42.053Z,36.90
2018-12-09T09:42:12.488Z,36.90
2018-12-09T09:44:42.688Z,37.50
2018-12-09T09:47:12.568Z,37.40
2018-12-09T09:49:43.005Z,37.60
2018-12-09T09:52:12.972Z,37.50
2018-12-09T09:54:43.540Z,37.80
2018-12-09T09:57:13.154Z,37.70
2018-12-09T09:59:42.060Z,37.60
2018-12-09T10:02:12.577Z,37.30
2018-12-09T10:04:41.402Z,37.20
2018-12-09T10:07:11.093Z,37.60
2018-12-09T10:09:41.410Z,37.60
2018-12-09T10:12:12.273Z,38.40
2018-12-09T10:14:42.578Z,39.20
2018-12-09T10:17:12.933Z,39.50
2018-12-09T10:19:43.738Z,40.00
2018-12-09T10:22:14.038Z,41.10
2018-12-09T10:24:46.126Z,40.60
2018-12-09T10:27:16.398Z,40.70
2018-12-09T10:29:46.942Z,41.30
2018-12-09T10:32:17.280Z,41.00
2018-12-09T10:34:48.142Z,41.10
2018-12-09T10:37:19.830Z,41.50
2018-12-09T10:39:50.104Z,41.70
2018-12-09T10:42:20.436Z,42.20
2018-12-09T10:44:50.971Z,43.20
2018-12-09T10:47:21.216Z,42.20
2018-12-09T10:49:51.900Z,41.80
2018-12-09T10:52:22.820Z,41.50
2018-12-09T10:54:52.307Z,40.90
2018-12-09T10:57:26.098Z,40.40
2018-12-09T10:59:55.831Z,40.30
2018-12-09T11:02:25.386Z,41.00
2018-12-09T11:04:55.399Z,40.90
2018-12-09T11:07:26.972Z,40.60
2018-12-09T11:09:55.999Z,40.60
2018-12-09T11:12:26.553Z,40.70
2018-12-09T11:14:56.825Z,40.80
2018-12-09T11:17:28.877Z,41.10
2018-12-09T11:19:59.528Z,41.70
2018-12-09T11:22:30.816Z,41.80
2018-12-09T11:25:01.677Z,41.90
2018-12-09T11:27:33.273Z,41.80
2018-12-09T11:30:04.663Z,41.80
2018-12-09T11:32:36.253Z,41.70
2018-12-09T11:35:07.161Z,41.50
2018-12-09T11:37:38.003Z,41.70
2018-12-09T11:40:10.370Z,42.00
2018-12-09T11:42:41.166Z,42.20
2018-12-09T11:45:12.898Z,42.50
2018-12-09T11:47:44.983Z,42.10
2018-12-09T11:50:15.528Z,41.90
2018-12-09T11:52:46.856Z,41.50
2018-12-09T11:55:17.121Z,41.50
2018-12-09T11:57:47.928Z,41.50
2018-12-09T12:00:18.858Z,41.50
2018-12-09T12:02:50.007Z,41.80
2018-12-09T12:05:20.321Z,41.90
2018-12-09T12:07:49.920Z,42.00
2018-12-09T12:10:20.414Z,41.70
2018-12-09T12:12:50.855Z,41.90
2018-12-09T12:15:20.684Z,41.90
2018-12-09T12:17:49.752Z,41.80
2018-12-09T12:20:18.857Z,41.90
2018-12-09T12:22:49.778Z,42.20
2018-12-09T12:25:24.139Z,41.80
2018-12-09T12:27:54.823Z,41.70
2018-12-09T12:30:26.281Z,42.00
2018-12-09T12:32:56.958Z,42.10
2018-12-09T12:35:28.923Z,41.70
2018-12-09T12:38:01.124Z,41.40
2018-12-09T12:40:31.734Z,41.30
2018-12-09T12:43:15.277Z,41.40
2018-12-09T12:45:45.706Z,41.60
2018-12-09T12:48:17.512Z,41.50
2018-12-09T12:50:48.666Z,41.10
2018-12-09T12:53:19.296Z,41.00
2018-12-09T12:55:50.482Z,41.10
2018-12-09T12:58:21.462Z,41.90
2018-12-09T13:00:50.468Z,42.70
2018-12-09T13:03:21.336Z,43.10
2018-12-09T13:05:56.194Z,43.20
2018-12-09T13:08:28.380Z,43.30
2018-12-09T13:11:00.129Z,43.50
2018-12-09T13:13:31.018Z,43.70
2018-12-09T13:16:02.190Z,43.80
2018-12-09T13:18:32.444Z,44.00
2018-12-09T13:21:04.340Z,44.40
2018-12-09T13:23:34.728Z,44.90
2018-12-09T13:26:03.984Z,45.20
2018-12-09T13:28:34.358Z,45.10
2018-12-09T13:31:03.985Z,44.70
2018-12-09T13:33:33.778Z,44.70
2018-12-09T13:36:04.894Z,44.30
2018-12-09T13:38:36.364Z,44.30
2018-12-09T13:41:07.880Z,44.30
2018-12-09T13:43:38.740Z,44.50
2018-12-09T13:46:09.821Z,44.00
2018-12-09T13:48:40.883Z,43.50
2018-12-09T13:51:12.834Z,42.70
2018-12-09T13:53:43.476Z,41.90
2018-12-09T13:56:14.088Z,41.30
2018-12-09T13:58:45.179Z,40.80
2018-12-09T14:01:16.511Z,39.80
2018-12-09T14:03:47.245Z,39.30
2018-12-09T14:06:19.016Z,38.70
2018-12-09T14:08:49.319Z,38.60
2018-12-09T14:11:20.357Z,38.70
2018-12-09T14:13:51.346Z,38.80
2018-12-09T14:16:22.576Z,38.70
2018-12-09T14:18:53.490Z,38.50
2018-12-09T14:21:25.170Z,37.90
2018-12-09T14:23:56.270Z,37.70
2018-12-09T14:26:27.806Z,37.70
2018-12-09T14:28:59.345Z,37.70
2018-12-09T14:31:30.167Z,37.70
2018-12-09T14:33:59.193Z,37.70
2018-12-09T14:36:28.614Z,37.70
2018-12-09T14:39:00.538Z,37.60
2018-12-09T14:41:31.117Z,37.70
2018-12-09T14:44:01.557Z,37.70
2018-12-09T14:46:31.910Z,37.60
2018-12-09T14:49:03.622Z,37.80
2018-12-09T14:51:33.996Z,37.70
2018-12-09T14:54:04.426Z,37.90
2018-12-09T14:56:34.859Z,37.80
2018-12-09T14:59:06.896Z,37.50
2018-12-09T15:01:41.722Z,37.70
2018-12-09T15:04:12.790Z,38.30
2018-12-09T15:06:44.126Z,39.10
2018-12-09T15:09:15.648Z,39.80
2018-12-09T15:11:46.810Z,40.10
2018-12-09T15:14:17.400Z,40.40
2018-12-09T15:16:48.411Z,40.80
2018-12-09T15:19:18.866Z,41.10
2018-12-09T15:21:49.746Z,41.40
2018-12-09T15:24:19.166Z,41.70
2018-12-09T15:26:51.056Z,42.20
2018-12-09T15:29:21.912Z,42.60
2018-12-09T15:31:52.752Z,42.60
2018-12-09T15:34:23.822Z,42.50
2018-12-09T15:36:54.072Z,42.10
2018-12-09T15:39:24.496Z,41.70
2018-12-09T15:41:54.592Z,41.30
2018-12-09T15:44:23.524Z,41.30
2018-12-09T15:46:52.781Z,41.20
2018-12-09T15:49:22.448Z,41.10
2018-12-09T15:51:56.708Z,41.10
2018-12-09T15:54:27.359Z,41.20
2018-12-09T15:56:58.714Z,40.80
2018-12-09T15:59:32.278Z,40.60
2018-12-09T16:02:02.775Z,40.40
2018-12-09T16:04:33.446Z,40.40
2018-12-09T16:07:04.829Z,40.90
2018-12-09T16:09:35.515Z,41.00
2018-12-09T16:12:05.902Z,41.00
2018-12-09T16:14:37.624Z,41.00
2018-12-09T16:17:08.726Z,40.80
2018-12-09T16:19:40.851Z,41.00
2018-12-09T16:22:11.647Z,41.10
2018-12-09T16:24:43.171Z,41.10
2018-12-09T16:27:14.235Z,41.30
2018-12-09T16:29:45.425Z,41.60
2018-12-09T16:32:16.140Z,41.80
2018-12-09T16:34:47.144Z,41.40
2018-12-09T16:37:17.173Z,41.30
2018-12-09T16:39:47.363Z,41.50
2018-12-09T16:42:18.379Z,42.30
2018-12-09T16:44:48.632Z,43.00
2018-12-09T16:47:18.130Z,43.90
2018-12-09T16:49:49.105Z,43.60
2018-12-09T16:52:19.423Z,43.80
2018-12-09T16:54:51.848Z,43.90
2018-12-09T16:57:23.180Z,43.50
2018-12-09T16:59:54.402Z,43.20
2018-12-09T17:02:25.637Z,43.20
2018-12-09T17:04:56.368Z,43.30
2018-12-09T17:07:29.009Z,43.40
2018-12-09T17:10:01.113Z,44.40
2018-12-09T17:12:32.203Z,43.90
2018-12-09T17:15:02.686Z,44.00
2018-12-09T17:17:33.277Z,44.00
2018-12-09T17:20:06.413Z,44.10
2018-12-09T17:22:41.115Z,44.10
2018-12-09T17:25:12.613Z,43.70
2018-12-09T17:27:42.885Z,43.30
2018-12-09T17:30:14.104Z,43.20
2018-12-09T17:32:44.417Z,42.90
2018-12-09T17:35:15.360Z,42.60
2018-12-09T17:37:46.066Z,42.50
2018-12-09T17:40:15.716Z,42.60
2018-12-09T17:42:46.134Z,43.10
2018-12-09T17:45:17.127Z,43.00
2018-12-09T17:47:48.705Z,42.90
2018-12-09T17:50:19.144Z,43.10
2018-12-09T17:52:48.654Z,42.90
2018-12-09T17:55:19.926Z,43.00
2018-12-09T17:57:50.914Z,42.90
2018-12-09T18:00:21.735Z,42.90
2018-12-09T18:03:05.204Z,42.80
2018-12-09T18:05:36.941Z,43.30
2018-12-09T18:08:07.305Z,44.20
2018-12-09T18:10:40.111Z,44.70
2018-12-09T18:13:12.893Z,45.00
2018-12-09T18:15:43.769Z,44.90
2018-12-09T18:18:16.377Z,44.80
2018-12-09T18:20:47.412Z,44.50
2018-12-09T18:23:17.792Z,44.10
2018-12-09T18:25:50.227Z,43.80
2018-12-09T18:28:21.478Z,43.60
2018-12-09T18:30:52.451Z,43.80
2018-12-09T18:33:24.456Z,44.20
2018-12-09T18:35:55.315Z,44.10
2018-12-09T18:38:26.534Z,43.50
2018-12-09T18:40:57.156Z,43.40
2018-12-09T18:43:27.048Z,43.50
2018-12-09T18:45:57.230Z,43.60
2018-12-09T18:48:26.550Z,43.90
2018-12-09T18:50:56.853Z,44.50
2018-12-09T18:53:26.507Z,44.40
2018-12-09T18:55:55.749Z,44.10
2018-12-09T18:58:25.345Z,44.70
2018-12-09T19:00:56.257Z,43.90
2018-12-09T19:03:26.532Z,43.10
2018-12-09T19:05:58.713Z,42.80
2018-12-09T19:08:29.884Z,43.00
2018-12-09T19:11:00.909Z,42.70
2018-12-09T19:13:34.874Z,42.50
2018-12-09T19:16:06.130Z,42.50
2018-12-09T19:18:37.913Z,42.50
2018-12-09T19:21:08.823Z,42.40
2018-12-09T19:23:40.312Z,42.20
2018-12-09T19:26:11.092Z,42.60
2018-12-09T19:28:42.072Z,43.70
2018-12-09T19:31:12.626Z,43.50
2018-12-09T19:33:43.502Z,43.70
2018-12-09T19:36:14.682Z,43.90
2018-12-09T19:38:45.045Z,43.60
2018-12-09T19:41:16.228Z,43.70
2018-12-09T19:43:46.850Z,43.60
2018-12-09T19:46:18.646Z,44.70
2018-12-09T19:48:49.080Z,44.80
2018-12-09T19:51:20.325Z,45.00
2018-12-09T19:53:51.248Z,45.40
2018-12-09T19:56:21.258Z,45.20
2018-12-09T19:58:50.880Z,44.80
2018-12-09T20:01:20.923Z,44.70
2018-12-09T20:03:51.092Z,44.80
2018-12-09T20:06:22.554Z,44.80
2018-12-09T20:08:52.106Z,44.80
2018-12-09T20:11:21.560Z,45.00
2018-12-09T20:13:52.741Z,45.30
2018-12-09T20:16:23.840Z,45.50
2018-12-09T20:18:54.818Z,45.20
2018-12-09T20:21:25.803Z,44.70
2018-12-09T20:23:56.602Z,44.80
2018-12-09T20:26:28.146Z,45.80
2018-12-09T20:29:00.674Z,46.60
2018-12-09T20:31:31.939Z,46.50
2018-12-09T20:34:02.051Z,46.40
2018-12-09T20:36:33.169Z,45.80
2018-12-09T20:39:04.540Z,45.40
2018-12-09T20:41:35.306Z,44.40
2018-12-09T20:44:05.757Z,43.70
2018-12-09T20:46:36.856Z,43.40
2018-12-09T20:49:07.661Z,44.20
2018-12-09T20:51:38.898Z,43.10
2018-12-09T20:54:10.427Z,43.00
2018-12-09T20:56:42.174Z,43.00
2018-12-09T20:59:12.947Z,42.70
2018-12-09T21:01:44.281Z,42.30
2018-12-09T21:04:15.725Z,41.60
2018-12-09T21:06:46.697Z,41.10
2018-12-09T21:09:17.781Z,40.70
2018-12-09T21:14:33.000Z,40.60
2018-12-09T21:17:04.032Z,40.60
2018-12-09T21:19:33.928Z,40.50
2018-12-09T21:22:04.866Z,40.50
2018-12-09T21:24:33.948Z,40.60
2018-12-09T21:27:03.755Z,40.70
2018-12-09T21:29:34.097Z,40.50
2018-12-09T21:32:04.938Z,40.50
2018-12-09T21:34:35.794Z,40.50
2018-12-09T21:37:06.671Z,40.40
2018-12-09T21:39:37.757Z,40.20
2018-12-09T21:42:09.466Z,40.10
2018-12-09T21:44:40.419Z,40.30
2018-12-09T21:47:11.378Z,40.20
2018-12-09T21:49:42.286Z,40.10
2018-12-09T21:52:13.716Z,40.00
2018-12-09T21:54:44.630Z,40.10
2018-12-09T21:57:16.385Z,40.30
2018-12-09T21:59:50.306Z,40.70
2018-12-09T22:02:22.294Z,41.10
2018-12-09T22:04:53.549Z,41.10
2018-12-09T22:07:24.037Z,41.00
2018-12-09T22:09:54.241Z,40.70
2018-12-09T22:12:24.295Z,40.80
2018-12-09T22:14:54.418Z,40.80
2018-12-09T22:17:23.984Z,40.80
2018-12-09T22:19:53.340Z,41.00
2018-12-09T22:22:22.734Z,41.40
2018-12-09T22:24:53.199Z,41.70
2018-12-09T22:27:22.952Z,41.80
2018-12-09T22:29:53.410Z,41.90
2018-12-09T22:32:22.376Z,42.10
2018-12-09T22:34:52.531Z,42.20
2018-12-09T22:37:23.010Z,41.90
2018-12-09T22:39:53.399Z,41.60
2018-12-09T22:42:23.603Z,41.60
2018-12-09T22:44:53.871Z,41.70
2018-12-09T22:47:24.059Z,42.00
2018-12-09T22:49:54.130Z,42.00
2018-12-09T22:52:24.133Z,42.00
2018-12-09T22:54:54.419Z,42.10
2018-12-09T22:57:25.204Z,42.10
2018-12-09T22:59:55.273Z,42.20
2018-12-09T23:02:29.035Z,42.50
2018-12-09T23:04:59.159Z,42.20
2018-12-09T23:07:34.250Z,42.20
2018-12-09T23:10:04.651Z,42.30
2018-12-09T23:12:34.198Z,42.40
2018-12-09T23:15:04.665Z,42.60
2018-12-09T23:17:34.946Z,42.30
2018-12-09T23:20:04.335Z,42.60
2018-12-09T23:22:33.887Z,41.20
2018-12-09T23:25:03.486Z,41.10
2018-12-09T23:27:32.884Z,40.90
2018-12-09T23:30:01.812Z,40.90
2018-12-09T23:32:31.506Z,40.80
2018-12-09T23:35:02.860Z,40.70
2018-12-09T23:37:34.536Z,40.50
2018-12-09T23:40:04.858Z,40.20
2018-12-09T23:42:35.199Z,39.90
2018-12-09T23:45:05.907Z,39.70
2018-12-09T23:47:36.536Z,39.90
2018-12-09T23:50:06.678Z,39.70
2018-12-09T23:52:36.756Z,39.10
2018-12-09T23:55:07.034Z,38.80
2018-12-09T23:57:37.296Z,39.10
